Veracruz Airport, Mexico

10:34 PM CDT on August 30, 2014 (GMT -0500)
Gen Heriberto Jara International | Change Station
CLOSE
Current Station
Airport
Location: Veracruz Airport,
Elevation: 95 ft
Nearby Weather Stations

Elev 95 ft 19.15 °N, 96.19 °W | Updated 48 minutes ago

Scattered Clouds
Scattered Clouds
82 °F
Feels Like 88 °F
N
4
Wind Variable Wind from East

Today
High -- | Low -- °F
--% Chance of Precip.
Yesterday
High -- | Low -- °F
Precip. -- in
7:09 AM 7:41 PM
Waxing Crescent, 27% visible
Pressure 29.78 in
Visibility 7.0 miles
Clouds Scattered Clouds 1200 ft
Heat Index 88 °F
Dew Point 73 °F
Humidity 74%
Rainfall 0.00 in
Snow Depth Not available.
UV 0 out of 12
Pollen Not available.
Air Quality Not available.
Flu Activity Not available.
METAR MMVR 310246Z 10003KT 7SM SCT012TCU 28/23 A2989 RMK SLP084 52024 904 8/200 DSNT CB SW

More Conditions Fewer Conditions

Pressure 29.78 in
Visibility 7.0 miles
Clouds Scattered Clouds 1200 ft
Heat Index 88 °F
Dew Point 73 °F
Humidity 74%
Rainfall 0.00 in
Snow Depth Not available.
UV 0 out of 12
Pollen Not available.
Air Quality Not available.
Flu Activity Not available.
METAR MMVR 310246Z 10003KT 7SM SCT012TCU 28/23 A2989 RMK SLP084 52024 904 8/200 DSNT CB SW

More Conditions Fewer Conditions

10-Day Weather Forecast

Almanac

Astronomy

Aug. 30, 2014 Rise Set
Actual Time 7:09 AM CDT 7:41 PM CDT
Civil Twilight 6:47 AM CDT 8:03 PM CDT
Nautical Twilight 6:20 AM CDT 8:29 PM CDT
Astronomical Twilight 5:54 AM CDT 8:55 PM CDT
Moon 11:14 AM CDT (8/30) 11:01 PM CDT (8/30)
Length of Visible Light 13h 16m
Length of Day
12h 31m
Tomorrow will be 1m 3s shorter.
Waxing Crescent, 27% of the Moon is Illuminated
Today
Waxing Crescent
Sep 2
First Quarter
Sep 8
Full
Sep 15
Last Quarter
Sep 24
New

Today's Extremes

Country Highs Country Lows

Community

WunderPhotos

Upload Photos

1,748,772 photos uploaded!

Nearby

Snow Depth

Not available.

Earthquake Activity

City Distance Mag. Time & Date
No recent earthquake activity has been reported nearby.
Minimum magnitude displayed is 2.5.

Coastal Water Temperatures

Place Temperature
No Stations Reporting

Nearby Weather Stations